createdAt,value
2023-04-15T00:00:07.169Z,95697.03
2023-04-15T00:02:18.821Z,95697.03
2023-04-15T00:04:26.411Z,95687.56
2023-04-15T00:06:31.303Z,95691.00
2023-04-15T00:08:36.227Z,95682.59
2023-04-15T00:10:41.052Z,95679.94
2023-04-15T00:12:45.909Z,95684.16
2023-04-15T00:14:51.285Z,95676.25
2023-04-15T00:16:57.434Z,95681.22
2023-04-15T00:19:02.609Z,95674.09
2023-04-15T00:21:10.204Z,95677.81
2023-04-15T00:23:14.976Z,95676.72
2023-04-15T00:25:19.800Z,95682.78
2023-04-15T00:27:24.495Z,95680.94
2023-04-15T00:29:29.711Z,95677.53
2023-04-15T00:31:34.709Z,95680.16
2023-04-15T00:33:40.280Z,95681.22
2023-04-15T00:35:45.113Z,95682.28
2023-04-15T00:37:52.419Z,95673.63
2023-04-15T00:39:57.368Z,95675.19
2023-04-15T00:42:02.378Z,95670.69
2023-04-15T00:44:07.197Z,95674.38
2023-04-15T00:46:12.922Z,95676.25
2023-04-15T00:48:18.796Z,95671.75
2023-04-15T00:50:23.737Z,95678.88
2023-04-15T00:52:28.607Z,95672.56
2023-04-15T00:54:36.635Z,95669.41
2023-04-15T00:56:42.838Z,95665.72
2023-04-15T00:58:47.937Z,95672.84
2023-04-15T01:00:54.529Z,95661.22
2023-04-15T01:02:59.394Z,95661.50
2023-04-15T01:05:04.364Z,95666.00
2023-04-15T01:07:09.380Z,95661.81
2023-04-15T01:09:14.875Z,95662.09
2023-04-15T01:11:22.574Z,95661.91
2023-04-15T01:13:28.276Z,95653.03
2023-04-15T01:15:33.301Z,95651.00
2023-04-15T01:17:38.333Z,95653.94
2023-04-15T01:19:45.546Z,95649.22
2023-04-15T01:21:50.891Z,95643.78
2023-04-15T01:23:58.586Z,95651.19
2023-04-15T01:26:06.514Z,95646.22
2023-04-15T01:28:11.365Z,95645.41
2023-04-15T01:30:16.399Z,95649.91
2023-04-15T01:32:21.303Z,95648.84
2023-04-15T01:34:26.533Z,95651.50
2023-04-15T01:36:32.770Z,95654.88
2023-04-15T01:38:37.780Z,95653.03
2023-04-15T01:40:42.514Z,95656.47
2023-04-15T01:42:49.984Z,95659.09
2023-04-15T01:44:55.015Z,95651.19
2023-04-15T01:46:59.984Z,95662.50
2023-04-15T01:49:05.232Z,95652.25
2023-04-15T01:51:11.564Z,95654.88
2023-04-15T01:53:17.076Z,95662.78
2023-04-15T01:55:21.914Z,95650.97
2023-04-15T01:57:26.619Z,95652.03
2023-04-15T01:59:34.247Z,95649.72
2023-04-15T02:01:39.104Z,95651.88
2023-04-15T02:03:44.270Z,95649.53
2023-04-15T02:05:49.357Z,95649.81
2023-04-15T02:07:54.168Z,95649.03
2023-04-15T02:09:58.864Z,95645.63
2023-04-15T02:12:03.716Z,95644.84
2023-04-15T02:14:08.636Z,95641.13
2023-04-15T02:16:22.003Z,95646.38
2023-04-15T02:18:26.637Z,95643.38
2023-04-15T02:20:32.365Z,95643.56
2023-04-15T02:22:37.804Z,95650.13
2023-04-15T02:24:42.568Z,95656.34
2023-04-15T02:26:48.349Z,95660.53
2023-04-15T02:28:54.075Z,95661.63
2023-04-15T02:30:59.979Z,95664.25
2023-04-15T02:33:07.991Z,95656.34
2023-04-15T02:35:13.490Z,95664.25
2023-04-15T02:37:20.545Z,95666.09
2023-04-15T02:39:26.047Z,95663.47
2023-04-15T02:41:30.807Z,95661.63
2023-04-15T02:43:36.497Z,95665.78
2023-04-15T02:45:41.444Z,95669.53
2023-04-15T02:47:47.546Z,95674.78
2023-04-15T02:49:55.444Z,95666.88
2023-04-15T02:52:00.958Z,95677.41
2023-04-15T02:54:05.856Z,95672.94
2023-04-15T02:56:11.889Z,95676.31
2023-04-15T02:58:16.670Z,95670.47
2023-04-15T03:00:21.798Z,95675.75
2023-04-15T03:02:27.565Z,95672.81
2023-04-15T03:04:32.584Z,95672.03
2023-04-15T03:06:39.945Z,95674.69
2023-04-15T03:08:46.906Z,95672.81
2023-04-15T03:10:52.572Z,95667.56
2023-04-15T03:12:57.367Z,95663.84
2023-04-15T03:15:02.464Z,95669.91
2023-04-15T03:17:13.802Z,95674.88
2023-04-15T03:19:18.803Z,95668.53
2023-04-15T03:21:24.159Z,95671.66
2023-04-15T03:23:31.872Z,95664.84
2023-04-15T03:25:37.543Z,95669.81
2023-04-15T03:27:45.103Z,95667.94
2023-04-15T03:29:51.805Z,95671.38
2023-04-15T03:31:57.651Z,95670.56
2023-04-15T03:34:02.664Z,95666.09
2023-04-15T03:36:08.057Z,95663.19
2023-04-15T03:38:12.755Z,95665.81
2023-04-15T03:40:20.109Z,95651.84
2023-04-15T03:42:24.860Z,95659.50
2023-04-15T03:44:29.693Z,95662.13
2023-04-15T03:46:34.412Z,95657.91
2023-04-15T03:48:39.156Z,95658.97
2023-04-15T03:50:44.270Z,95647.69
2023-04-15T03:52:50.731Z,95653.25
2023-04-15T03:54:56.175Z,95647.97
2023-04-15T03:57:03.665Z,95653.53
2023-04-15T03:59:08.338Z,95653.25
2023-04-15T04:01:13.020Z,95645.63
2023-04-15T04:03:17.832Z,95646.69
2023-04-15T04:05:22.911Z,95649.63
2023-04-15T04:07:27.628Z,95648.34
2023-04-15T04:09:32.681Z,95645.72
2023-04-15T04:11:37.798Z,95649.13
2023-04-15T04:13:45.149Z,95647.59
2023-04-15T04:15:49.892Z,95646.50
2023-04-15T04:17:54.765Z,95649.91
2023-04-15T04:19:59.619Z,95640.44
2023-04-15T04:22:05.231Z,95648.34
2023-04-15T04:24:09.944Z,95649.13
2023-04-15T04:26:14.675Z,95647.59
2023-04-15T04:28:19.319Z,95652.84
2023-04-15T04:30:26.644Z,95651.75
2023-04-15T04:32:31.683Z,95650.69
2023-04-15T04:34:36.790Z,95653.31
2023-04-15T04:36:41.631Z,95655.94
2023-04-15T04:38:46.535Z,95652.56
2023-04-15T04:40:51.396Z,95654.88
2023-04-15T04:42:56.398Z,95657.53
2023-04-15T04:45:01.259Z,95652.25
2023-04-15T04:47:09.404Z,95658.59
2023-04-15T04:49:14.222Z,95662.78
2023-04-15T04:51:19.044Z,95656.47
2023-04-15T04:53:23.753Z,95665.59
2023-04-15T04:55:28.542Z,95669.81
2023-04-15T04:57:33.312Z,95665.81
2023-04-15T04:59:38.339Z,95668.16
2023-04-15T05:01:43.193Z,95665.22
2023-04-15T05:03:50.782Z,95669.44
2023-04-15T05:05:55.522Z,95671.47
2023-04-15T05:08:00.313Z,95670.38
2023-04-15T05:10:05.179Z,95676.16
2023-04-15T05:12:15.079Z,95678.19
2023-04-15T05:14:20.787Z,95674.78
2023-04-15T05:16:26.649Z,95677.13
2023-04-15T05:18:31.345Z,95670.78
2023-04-15T05:20:38.713Z,95668.13
2023-04-15T05:22:43.431Z,95672.34
2023-04-15T05:24:48.287Z,95676.84
2023-04-15T05:26:52.990Z,95671.56
2023-04-15T05:28:58.144Z,95667.38
2023-04-15T05:31:02.898Z,95674.50
2023-04-15T05:33:07.873Z,95676.84
2023-04-15T05:35:12.891Z,95683.66
2023-04-15T05:37:21.049Z,95674.97
2023-04-15T05:39:25.796Z,95671.28
2023-04-15T05:41:30.533Z,95680.75
2023-04-15T05:43:35.201Z,95680.75
2023-04-15T05:45:40.010Z,95687.56
2023-04-15T05:47:45.098Z,95687.56
2023-04-15T05:49:49.882Z,95687.09
2023-04-15T05:51:54.678Z,95685.22
2023-04-15T05:54:02.098Z,95684.75
2023-04-15T05:56:07.641Z,95688.16
2023-04-15T05:58:12.783Z,95691.56
2023-04-15T06:00:18.363Z,95687.84
2023-04-15T06:02:23.148Z,95691.28
2023-04-15T06:04:28.281Z,95693.91
2023-04-15T06:06:33.588Z,95691.75
2023-04-15T06:08:38.530Z,95694.41
2023-04-15T06:10:46.286Z,95696.25
2023-04-15T06:12:51.115Z,95697.31
2023-04-15T06:14:55.894Z,95693.13
2023-04-15T06:17:00.652Z,95699.97
2023-04-15T06:19:05.472Z,95707.56
2023-04-15T06:21:10.147Z,95699.66
2023-04-15T06:23:14.909Z,95692.53
2023-04-15T06:25:20.085Z,95696.72
2023-04-15T06:27:27.549Z,95700.63
2023-04-15T06:29:32.303Z,95700.63
2023-04-15T06:31:37.595Z,95699.84
2023-04-15T06:33:42.440Z,95703.75
2023-04-15T06:35:47.637Z,95701.13
2023-04-15T06:37:52.380Z,95700.81
2023-04-15T06:39:57.275Z,95700.06
2023-04-15T06:42:02.223Z,95701.63
2023-04-15T06:44:09.950Z,95696.34
2023-04-15T06:46:14.861Z,95694.50
2023-04-15T06:48:19.777Z,95702.38
2023-04-15T06:50:24.676Z,95707.38
2023-04-15T06:52:29.500Z,95708.94
2023-04-15T06:54:34.305Z,95711.56
2023-04-15T06:56:39.145Z,95717.59
2023-04-15T06:58:43.799Z,95717.31
2023-04-15T07:00:52.221Z,95725.22
2023-04-15T07:02:57.271Z,95720.72
2023-04-15T07:05:02.191Z,95718.09
2023-04-15T07:07:08.217Z,95717.03
2023-04-15T07:09:13.003Z,95710.97
2023-04-15T07:11:17.721Z,95712.53
2023-04-15T07:13:22.609Z,95717.78
2023-04-15T07:15:27.360Z,95718.59
2023-04-15T07:17:34.724Z,95715.16
2023-04-15T07:19:39.494Z,95709.88
2023-04-15T07:21:44.225Z,95711.44
2023-04-15T07:23:48.933Z,95721.69
2023-04-15T07:25:53.801Z,95717.69
2023-04-15T07:27:58.526Z,95715.53
2023-04-15T07:30:03.524Z,95721.31
2023-04-15T07:32:10.657Z,95713.41
2023-04-15T07:34:17.998Z,95711.53
2023-04-15T07:36:22.755Z,95709.72
2023-04-15T07:38:27.568Z,95713.13
2023-04-15T07:40:32.513Z,95719.44
2023-04-15T07:42:40.754Z,95722.88
2023-04-15T07:44:46.232Z,95727.06
2023-04-15T07:46:50.996Z,95726.75
2023-04-15T07:48:55.748Z,95721.19
2023-04-15T07:51:03.755Z,95726.19
2023-04-15T07:53:08.569Z,95726.97
2023-04-15T07:55:13.465Z,95727.44
2023-04-15T07:57:18.165Z,95726.38
2023-04-15T07:59:23.147Z,95725.31
2023-04-15T08:01:27.808Z,95725.00
2023-04-15T08:03:33.296Z,95732.13
2023-04-15T08:05:38.250Z,95727.34
2023-04-15T08:07:45.684Z,95728.13
2023-04-15T08:09:50.708Z,95730.47
2023-04-15T08:11:56.840Z,95731.25
2023-04-15T08:14:01.822Z,95732.81
2023-04-15T08:16:41.875Z,95733.88
2023-04-15T08:18:46.665Z,95730.16
2023-04-15T08:20:51.454Z,95729.41
2023-04-15T08:22:59.300Z,95726.75
2023-04-15T08:25:03.955Z,95735.94
2023-04-15T08:27:09.047Z,95734.09
2023-04-15T08:29:13.809Z,95739.06
2023-04-15T08:31:22.779Z,95739.06
2023-04-15T08:33:28.992Z,95729.28
2023-04-15T08:35:33.677Z,95736.88
2023-04-15T08:37:38.425Z,95743.72
2023-04-15T08:39:45.809Z,95740.03
2023-04-15T08:41:55.244Z,95747.34
2023-04-15T08:44:01.588Z,95739.91
2023-04-15T08:46:08.371Z,95739.63
2023-04-15T08:48:17.686Z,95739.31
2023-04-15T08:50:23.917Z,95736.41
2023-04-15T08:52:29.263Z,95738.75
2023-04-15T08:54:34.173Z,95734.25
2023-04-15T08:56:42.780Z,95732.38
2023-04-15T08:58:48.035Z,95738.19
2023-04-15T09:00:53.086Z,95747.63
2023-04-15T09:02:59.806Z,95743.16
2023-04-15T09:05:06.680Z,95745.78
2023-04-15T09:07:11.693Z,95752.59
2023-04-15T09:09:17.188Z,95750.78
2023-04-15T09:11:22.482Z,95748.59
2023-04-15T09:13:30.267Z,95748.59
2023-04-15T09:15:36.290Z,95748.31
2023-04-15T09:17:45.881Z,95758.09
2023-04-15T09:19:50.874Z,95757.03
2023-04-15T09:21:58.926Z,95759.34
2023-04-15T09:24:04.727Z,95754.84
2023-04-15T09:26:10.822Z,95762.78
2023-04-15T09:28:15.949Z,95759.84
2023-04-15T09:30:23.525Z,95747.72
2023-04-15T09:32:28.293Z,95750.06
2023-04-15T09:34:38.739Z,95761.41
2023-04-15T09:36:56.344Z,95756.13
2023-04-15T09:39:02.347Z,95750.84
2023-04-15T09:41:19.860Z,95758.47
2023-04-15T09:43:26.261Z,95754.75
2023-04-15T09:45:34.266Z,95758.94
2023-04-15T09:47:39.158Z,95757.56
2023-04-15T09:49:58.556Z,95758.63
2023-04-15T09:52:06.496Z,95759.13
2023-04-15T09:54:11.679Z,95756.19
2023-04-15T09:56:16.430Z,95757.47
2023-04-15T09:58:22.202Z,95762.44
2023-04-15T10:00:27.107Z,95763.69
2023-04-15T10:02:35.524Z,95751.31
2023-04-15T10:04:43.976Z,95757.34
2023-04-15T10:06:48.852Z,95752.53
2023-04-15T10:08:53.861Z,95763.91
2023-04-15T10:10:59.244Z,95762.53
2023-04-15T10:13:04.308Z,95765.94
2023-04-15T10:15:12.515Z,95753.50
2023-04-15T10:17:21.194Z,95763.28
2023-04-15T10:19:30.510Z,95761.44
2023-04-15T10:21:36.352Z,95766.69
2023-04-15T10:23:41.731Z,95764.88
2023-04-15T10:25:46.632Z,95765.94
2023-04-15T10:27:53.006Z,95763.00
2023-04-15T10:29:57.891Z,95767.19
2023-04-15T10:32:03.513Z,95771.69
2023-04-15T10:34:08.926Z,95769.84
2023-04-15T10:36:17.095Z,95773.25
2023-04-15T10:38:39.007Z,95774.31
2023-04-15T10:40:45.520Z,95774.31
2023-04-15T10:42:50.338Z,95776.66
2023-04-15T10:44:59.733Z,95776.66
2023-04-15T10:47:08.300Z,95781.63
2023-04-15T10:49:14.469Z,95782.44
2023-04-15T10:51:29.960Z,95778.72
2023-04-15T10:53:34.709Z,95772.34
2023-04-15T10:55:39.731Z,95783.41
2023-04-15T10:57:46.089Z,95772.84
2023-04-15T11:00:07.251Z,95772.84
2023-04-15T11:02:12.019Z,95777.03
2023-04-15T11:04:17.081Z,95774.09
2023-04-15T11:06:47.122Z,95770.69
2023-04-15T11:09:02.783Z,95766.78
2023-04-15T11:11:07.933Z,95770.69
2023-04-15T11:13:21.488Z,95765.09
2023-04-15T11:15:32.722Z,95768.50
2023-04-15T11:17:37.754Z,95766.66
2023-04-15T11:19:42.574Z,95762.66
2023-04-15T11:21:49.983Z,95768.72
2023-04-15T11:23:54.744Z,95773.69
2023-04-15T11:26:00.305Z,95773.38
2023-04-15T11:28:05.820Z,95780.22
2023-04-15T11:30:22.766Z,95786.28
2023-04-15T11:32:28.862Z,95782.28
2023-04-15T11:34:36.197Z,95788.03
2023-04-15T11:36:41.543Z,95790.66
2023-04-15T11:38:50.318Z,95796.75
2023-04-15T11:40:55.091Z,95793.00
2023-04-15T11:43:10.865Z,95793.59
2023-04-15T11:45:17.414Z,95790.66
2023-04-15T11:47:26.766Z,95795.94
2023-04-15T11:49:34.170Z,95793.31
2023-04-15T11:51:39.236Z,95794.09
2023-04-15T11:53:46.264Z,95792.22
2023-04-15T11:55:54.477Z,95795.63
2023-04-15T11:58:16.545Z,95801.72
2023-04-15T12:00:24.017Z,95795.63
2023-04-15T12:02:35.156Z,95805.91
2023-04-15T12:04:40.491Z,95806.09
2023-04-15T12:06:46.187Z,95803.16
2023-04-15T12:08:52.800Z,95802.09
2023-04-15T12:11:04.688Z,95803.31
2023-04-15T12:13:09.834Z,95803.81
2023-04-15T12:15:14.852Z,95808.03
2023-04-15T12:17:20.033Z,95803.22
2023-04-15T12:19:30.350Z,95805.84
2023-04-15T12:21:38.857Z,95808.50
2023-04-15T12:23:51.677Z,95818.28
2023-04-15T12:25:57.169Z,95816.44
2023-04-15T12:28:04.720Z,95816.44
2023-04-15T12:30:11.841Z,95823.28
2023-04-15T12:32:20.010Z,95820.34
2023-04-15T12:34:33.141Z,95822.16
2023-04-15T12:36:39.003Z,95832.44
2023-04-15T12:38:43.919Z,95836.94
2023-04-15T12:40:50.470Z,95842.22
2023-04-15T12:42:56.716Z,95850.91
2023-04-15T12:45:04.068Z,95850.16
2023-04-15T12:47:10.930Z,95848.28
2023-04-15T12:49:20.056Z,95849.06
2023-04-15T12:51:25.050Z,95852.47
2023-04-15T12:53:31.316Z,95853.56
2023-04-15T12:55:36.246Z,95853.25
2023-04-15T12:57:40.999Z,95861.97
2023-04-15T12:59:45.790Z,95859.81
2023-04-15T13:01:54.005Z,95858.75
2023-04-15T13:03:59.293Z,95857.66
2023-04-15T13:06:05.123Z,95860.00
2023-04-15T13:08:10.404Z,95856.25
2023-04-15T13:10:15.227Z,95857.53
2023-04-15T13:12:20.088Z,95859.09
2023-04-15T13:14:24.881Z,95868.28
2023-04-15T13:16:29.966Z,95863.00
2023-04-15T13:18:37.656Z,95872.47
2023-04-15T13:20:42.735Z,95875.31
2023-04-15T13:22:47.484Z,95874.22
2023-04-15T13:24:52.485Z,95882.13
2023-04-15T13:26:59.397Z,95883.72
2023-04-15T13:29:04.279Z,95884.78
2023-04-15T13:31:09.513Z,95894.28
2023-04-15T13:33:15.108Z,95890.84
2023-04-15T13:35:22.640Z,95900.94
2023-04-15T13:37:30.187Z,95900.16
2023-04-15T13:39:34.944Z,95898.59
2023-04-15T13:41:40.206Z,95903.88
2023-04-15T13:43:45.166Z,95907.31
2023-04-15T13:45:50.187Z,95912.59
2023-04-15T13:47:55.136Z,95917.88
2023-04-15T13:50:00.509Z,95917.88
2023-04-15T13:52:07.861Z,95914.44
2023-04-15T13:54:12.674Z,95917.06
2023-04-15T13:56:17.575Z,95925.81
2023-04-15T13:58:22.667Z,95920.81
2023-04-15T14:00:27.477Z,95928.75
2023-04-15T14:02:32.327Z,95924.53
2023-04-15T14:04:37.197Z,95931.69
2023-04-15T14:06:42.151Z,95928.25
2023-04-15T14:08:49.856Z,95931.19
2023-04-15T14:10:54.748Z,95933.81
2023-04-15T14:12:59.552Z,95933.81
2023-04-15T14:15:05.260Z,95932.25
2023-04-15T14:17:10.584Z,95938.31
2023-04-15T14:19:15.444Z,95938.31
2023-04-15T14:21:20.240Z,95942.53
2023-04-15T14:23:25.236Z,95940.97
2023-04-15T14:25:34.108Z,95944.69
2023-04-15T14:27:39.145Z,95947.63
2023-04-15T14:29:43.899Z,95951.34
2023-04-15T14:32:11.245Z,95955.84
2023-04-15T14:34:14.131Z,95961.41
2023-04-15T14:36:18.969Z,95960.34
2023-04-15T14:38:23.821Z,95959.84
2023-04-15T14:40:28.655Z,95961.72
2023-04-15T14:42:36.312Z,95967.28
2023-04-15T14:44:41.186Z,95970.72
2023-04-15T14:46:46.082Z,95977.84
2023-04-15T14:48:51.068Z,95980.50
2023-04-15T14:50:56.443Z,95983.44
2023-04-15T14:53:01.701Z,95982.63
2023-04-15T14:55:06.742Z,95992.44
2023-04-15T14:57:11.695Z,95991.66
2023-04-15T14:59:19.089Z,95984.81
2023-04-15T15:01:24.276Z,95986.38
2023-04-15T15:03:29.195Z,95990.09
2023-04-15T15:05:34.108Z,95996.44
2023-04-15T15:07:39.635Z,96000.66
2023-04-15T15:09:44.527Z,95991.97
2023-04-15T15:11:49.323Z,96006.22
2023-04-15T15:13:54.324Z,96008.09
2023-04-15T15:16:01.933Z,96013.66
2023-04-15T15:18:07.212Z,96011.03
2023-04-15T15:20:13.051Z,96018.16
2023-04-15T15:22:20.181Z,96019.25
2023-04-15T15:24:26.364Z,96028.25
2023-04-15T15:26:31.473Z,96031.16
2023-04-15T15:28:37.018Z,96031.47
2023-04-15T15:30:41.856Z,96032.53
2023-04-15T15:32:49.395Z,96032.06
2023-04-15T15:34:54.778Z,96034.69
2023-04-15T15:37:00.062Z,96038.69
2023-04-15T15:39:05.531Z,96040.84
2023-04-15T15:41:10.671Z,96045.34
2023-04-15T15:43:15.510Z,96038.50
2023-04-15T15:45:20.539Z,96045.63
2023-04-15T15:47:26.776Z,96053.56
2023-04-15T15:49:34.655Z,96054.13
2023-04-15T15:51:39.504Z,96050.72
2023-04-15T15:53:44.897Z,96064.69
2023-04-15T15:55:52.692Z,96057.84
2023-04-15T15:57:58.443Z,96058.44
2023-04-15T16:02:13.075Z,96067.41
2023-04-15T16:04:18.593Z,96064.31
2023-04-15T16:06:26.809Z,96075.44
2023-04-15T16:08:31.679Z,96072.81
2023-04-15T16:10:36.660Z,96077.28
2023-04-15T16:12:41.643Z,96075.44
2023-04-15T16:14:47.403Z,96079.16
2023-04-15T16:16:52.287Z,96078.38
2023-04-15T16:18:57.750Z,96084.72
2023-04-15T16:21:02.565Z,96085.00
2023-04-15T16:23:15.869Z,96092.94
2023-04-15T16:25:20.875Z,96088.72
2023-04-15T16:27:25.707Z,96091.34
2023-04-15T16:29:31.408Z,96096.16
2023-04-15T16:31:37.512Z,96093.00
2023-04-15T16:33:42.369Z,96102.50
2023-04-15T16:35:47.158Z,96105.13
2023-04-15T16:37:52.032Z,96101.72
2023-04-15T16:39:59.537Z,96102.78
2023-04-15T16:42:05.072Z,96110.69
2023-04-15T16:44:11.008Z,96115.19
2023-04-15T16:46:15.955Z,96110.22
2023-04-15T16:48:21.318Z,96122.31
2023-04-15T16:50:26.168Z,96117.03
2023-04-15T16:52:31.394Z,96123.88
2023-04-15T16:54:41.438Z,96131.03
2023-04-15T16:56:50.304Z,96131.81
2023-04-15T16:58:55.094Z,96131.03
2023-04-15T17:01:01.370Z,96140.78
2023-04-15T17:03:06.721Z,96135.03
2023-04-15T17:05:13.599Z,96137.19
2023-04-15T17:07:18.387Z,96139.81
2023-04-15T17:09:23.213Z,96150.66
2023-04-15T17:11:28.020Z,96148.03
2023-04-15T17:13:35.627Z,96149.88
2023-04-15T17:15:40.956Z,96152.50
2023-04-15T17:17:46.088Z,96157.78
2023-04-15T17:19:51.083Z,96160.13
2023-04-15T17:21:58.232Z,96167.75
2023-04-15T17:24:03.057Z,96163.56
2023-04-15T17:26:07.902Z,96169.63
2023-04-15T17:28:12.827Z,96166.50
2023-04-15T17:30:20.725Z,96173.91
2023-04-15T17:32:26.492Z,96182.59
2023-04-15T17:34:49.769Z,96180.25
2023-04-15T17:36:56.049Z,96183.47
2023-04-15T17:39:01.205Z,96184.53
2023-04-15T17:41:07.895Z,96188.25
2023-04-15T17:43:12.711Z,96193.00
2023-04-15T17:45:20.589Z,96196.75
2023-04-15T17:47:25.539Z,96198.28
2023-04-15T17:49:31.282Z,96191.47
2023-04-15T17:51:36.184Z,96202.78
2023-04-15T17:53:47.564Z,96203.84
2023-04-15T17:55:53.401Z,96209.41
2023-04-15T17:57:58.198Z,96209.41
2023-04-15T18:00:03.062Z,96209.41
2023-04-15T18:02:20.408Z,96214.97
2023-04-15T18:04:26.689Z,96213.13
2023-04-15T18:06:32.037Z,96230.31
2023-04-15T18:08:36.922Z,96222.97
2023-04-15T18:10:42.349Z,96237.22
2023-04-15T18:12:47.200Z,96238.56
2023-04-15T18:14:51.981Z,96243.34
2023-04-15T18:16:56.742Z,96240.72
2023-04-15T18:19:04.464Z,96245.50
2023-04-15T18:21:11.582Z,96244.72
2023-04-15T18:23:17.817Z,96253.97
2023-04-15T18:25:22.569Z,96254.22
2023-04-15T18:27:27.397Z,96259.50
2023-04-15T18:29:33.187Z,96265.59
2023-04-15T18:31:38.037Z,96265.59
2023-04-15T18:33:42.914Z,96273.78
2023-04-15T18:35:50.549Z,96274.81
2023-04-15T18:37:56.363Z,96278.25
2023-04-15T18:40:01.795Z,96276.69
2023-04-15T18:42:06.768Z,96279.03
2023-04-15T18:44:12.436Z,96283.22
2023-04-15T18:46:17.607Z,96287.72
2023-04-15T18:48:22.439Z,96287.47
2023-04-15T18:50:27.242Z,96298.03
2023-04-15T18:52:34.625Z,96295.63
2023-04-15T18:54:39.882Z,96300.91
2023-04-15T18:56:44.769Z,96310.69
2023-04-15T18:59:08.654Z,96306.97
2023-04-15T19:01:14.506Z,96314.88
2023-04-15T19:03:19.341Z,96318.59
2023-04-15T19:05:24.176Z,96322.00
2023-04-15T19:07:29.012Z,96325.72
2023-04-15T19:09:36.495Z,96315.44
2023-04-15T19:11:41.333Z,96321.81
2023-04-15T19:13:46.107Z,96326.28
2023-04-15T19:15:50.867Z,96329.97
2023-04-15T19:17:55.793Z,96328.13
2023-04-15T19:20:00.841Z,96331.06
2023-04-15T19:22:06.040Z,96334.47
2023-04-15T19:24:10.863Z,96341.31
2023-04-15T19:26:18.476Z,96345.78
2023-04-15T19:28:23.237Z,96346.88
2023-04-15T19:30:28.828Z,96355.84
2023-04-15T19:32:33.627Z,96354.25
2023-04-15T19:34:38.595Z,96354.53
2023-04-15T19:36:43.499Z,96357.47
2023-04-15T19:38:48.274Z,96356.97
2023-04-15T19:40:53.060Z,96358.81
2023-04-15T19:43:00.479Z,96356.72
2023-04-15T19:45:05.257Z,96359.38
2023-04-15T19:47:10.149Z,96361.50
2023-04-15T19:49:15.278Z,96361.03
2023-04-15T19:51:20.404Z,96362.56
2023-04-15T19:53:25.799Z,96362.84
2023-04-15T19:55:30.666Z,96362.34
2023-04-15T19:57:35.771Z,96364.19
2023-04-15T19:59:43.395Z,96372.38
2023-04-15T20:01:48.406Z,96364.47
2023-04-15T20:03:55.637Z,96366.31
2023-04-15T20:06:00.804Z,96365.84
2023-04-15T20:08:05.824Z,96371.09
2023-04-15T20:10:13.244Z,96375.84
2023-04-15T20:12:50.432Z,96373.22
2023-04-15T20:14:45.815Z,96373.50
2023-04-15T20:16:50.733Z,96373.78
2023-04-15T20:18:55.729Z,96373.00
2023-04-15T20:21:00.807Z,96381.97
2023-04-15T20:23:05.602Z,96378.56
2023-04-15T20:25:11.557Z,96383.81
2023-04-15T20:27:16.554Z,96382.25
2023-04-15T20:29:21.406Z,96384.88
2023-04-15T20:31:28.924Z,96384.09
2023-04-15T20:33:33.820Z,96384.88
2023-04-15T20:35:39.128Z,96399.63
2023-04-15T20:37:46.580Z,96391.72
2023-04-15T20:39:51.915Z,96398.84
2023-04-15T20:41:56.754Z,96403.34
2023-04-15T20:44:01.523Z,96398.34
2023-04-15T20:46:17.850Z,96401.25
2023-04-15T20:48:28.790Z,96395.72
2023-04-15T20:50:33.736Z,96402.88
2023-04-15T20:52:38.563Z,96405.78
2023-04-15T20:54:43.517Z,96405.78
2023-04-15T20:56:48.321Z,96409.47
2023-04-15T20:58:53.128Z,96409.75
2023-04-15T21:00:58.864Z,96415.81
2023-04-15T21:03:03.958Z,96413.19
2023-04-15T21:05:12.213Z,96409.47
2023-04-15T21:07:17.092Z,96411.06
2023-04-15T21:09:21.933Z,96417.38
2023-04-15T21:11:49.412Z,96416.59
2023-04-15T21:13:51.738Z,96416.06
2023-04-15T21:15:56.682Z,96423.72
2023-04-15T21:18:01.606Z,96415.03
2023-04-15T21:20:07.976Z,96423.97
2023-04-15T21:22:15.472Z,96431.09
2023-04-15T21:24:20.342Z,96427.69
2023-04-15T21:26:25.105Z,96432.69
2023-04-15T21:28:30.752Z,96429.25
2023-04-15T21:30:35.575Z,96430.34
2023-04-15T21:32:40.640Z,96435.88
2023-04-15T21:34:45.426Z,96444.56
2023-04-15T21:36:50.221Z,96441.44
2023-04-15T21:38:57.814Z,96445.63
2023-04-15T21:41:06.670Z,96437.72
2023-04-15T21:43:11.992Z,96445.63
2023-04-15T21:45:17.022Z,96452.75
2023-04-15T21:47:21.886Z,96450.09
2023-04-15T21:49:26.791Z,96454.31
2023-04-15T21:51:31.693Z,96453.53
2023-04-15T21:53:36.521Z,96452.47
2023-04-15T21:55:43.964Z,96453.25
2023-04-15T21:57:48.785Z,96450.59
2023-04-15T21:59:53.557Z,96457.47
2023-04-15T22:01:58.712Z,96458.50
2023-04-15T22:04:03.654Z,96455.66
2023-04-15T22:06:08.566Z,96457.50
2023-04-15T22:08:13.553Z,96467.25
2023-04-15T22:10:19.624Z,96461.47
2023-04-15T22:12:27.019Z,96460.94
2023-04-15T22:14:32.958Z,96468.34
2023-04-15T22:16:37.804Z,96472.03
2023-04-15T22:18:42.790Z,96466.00
2023-04-15T22:20:47.748Z,96474.94
2023-04-15T22:22:54.274Z,96484.47
2023-04-15T22:24:59.330Z,96482.09
2023-04-15T22:27:04.127Z,96486.88
2023-04-15T22:29:11.487Z,96489.78
2023-04-15T22:31:16.589Z,96490.56
2023-04-15T22:33:21.437Z,96492.91
2023-04-15T22:35:26.345Z,96501.09
2023-04-15T22:37:31.691Z,96506.63
2023-04-15T22:39:36.569Z,96500.88
2023-04-15T22:41:41.355Z,96501.13
2023-04-15T22:43:46.337Z,96510.09
2023-04-15T22:45:55.519Z,96505.88
2023-04-15T22:48:00.733Z,96510.38
2023-04-15T22:50:05.638Z,96514.06
2023-04-15T22:52:17.175Z,96506.94
2023-04-15T22:54:28.485Z,96514.84
2023-04-15T22:56:33.357Z,96513.00
2023-04-15T22:58:38.197Z,96505.88
2023-04-15T23:00:43.337Z,96506.69
2023-04-15T23:02:50.865Z,96510.09
2023-04-15T23:04:55.823Z,96507.19
2023-04-15T23:07:00.682Z,96510.34
2023-04-15T23:09:05.629Z,96506.63
2023-04-15T23:11:11.218Z,96509.81
2023-04-15T23:13:16.035Z,96508.22
2023-04-15T23:15:20.865Z,96516.91
2023-04-15T23:17:26.815Z,96510.84
2023-04-15T23:19:34.240Z,96516.13
2023-04-15T23:21:39.062Z,96517.97
2023-04-15T23:23:43.879Z,96512.72
2023-04-15T23:25:49.401Z,96512.72
2023-04-15T23:27:54.191Z,96523.25
2023-04-15T23:29:59.065Z,96517.69
2023-04-15T23:32:03.911Z,96519.53
2023-04-15T23:34:08.823Z,96513.47
2023-04-15T23:36:16.368Z,96518.75
2023-04-15T23:38:21.184Z,96516.13
2023-04-15T23:40:25.980Z,96528.50
2023-04-15T23:42:30.829Z,96523.25
2023-04-15T23:44:35.596Z,96521.38
2023-04-15T23:46:40.500Z,96520.63
2023-04-15T23:48:45.348Z,96519.03
2023-04-15T23:50:50.453Z,96516.41
2023-04-15T23:52:58.011Z,96519.31
2023-04-15T23:55:03.038Z,96519.03
2023-04-15T23:57:07.809Z,96517.44
2023-04-15T23:59:12.697Z,96518.25
